createdAt,value
2022-12-01T00:01:41.209Z,102780.09
2022-12-01T00:04:10.076Z,102935.94
2022-12-01T00:06:39.315Z,102932.50
2022-12-01T00:09:26.196Z,102910.88
2022-12-01T00:11:55.536Z,102911.78
2022-12-01T00:14:24.237Z,102936.03
2022-12-01T00:16:53.149Z,102904.19
2022-12-01T00:19:25.997Z,102904.75
2022-12-01T00:21:55.423Z,102872.59
2022-12-01T00:24:25.158Z,102815.06
2022-12-01T00:27:12.689Z,102927.63
2022-12-01T00:29:41.853Z,102921.19
2022-12-01T00:32:11.408Z,102817.63
2022-12-01T00:34:40.131Z,102910.00
2022-12-01T00:37:09.632Z,102898.84
2022-12-01T00:39:38.628Z,102872.22
2022-12-01T00:42:14.342Z,102926.38
2022-12-01T00:44:43.509Z,102891.31
2022-12-01T00:47:12.469Z,102890.09
2022-12-01T00:49:41.269Z,102898.16
2022-12-01T00:52:10.431Z,102914.19
2022-12-01T00:54:39.497Z,102901.03
2022-12-01T00:57:09.005Z,102885.28
2022-12-01T00:59:38.270Z,102920.66
2022-12-01T01:02:08.975Z,102877.38
2022-12-01T01:04:38.291Z,102890.16
2022-12-01T01:07:07.023Z,102817.44
2022-12-01T01:09:35.869Z,102900.69
2022-12-01T01:12:04.641Z,102902.47
2022-12-01T01:14:33.436Z,102913.28
2022-12-01T01:17:02.303Z,102902.47
2022-12-01T01:19:33.680Z,102915.63
2022-12-01T01:22:02.490Z,102890.63
2022-12-01T01:24:31.221Z,102888.44
2022-12-01T01:27:00.189Z,102829.81
2022-12-01T01:29:29.061Z,102922.63
2022-12-01T01:31:57.861Z,102824.25
2022-12-01T01:34:26.739Z,102875.19
2022-12-01T01:36:55.506Z,102863.25
2022-12-01T01:39:24.063Z,102904.63
2022-12-01T01:41:55.328Z,102898.88
2022-12-01T01:44:52.261Z,102939.53
2022-12-01T01:47:27.442Z,102918.84
2022-12-01T01:49:58.402Z,102872.63
2022-12-01T01:52:28.920Z,102920.50
2022-12-01T01:54:57.924Z,102904.81
2022-12-01T01:57:34.055Z,102918.16
2022-12-01T02:00:13.709Z,102875.72
2022-12-01T02:02:44.450Z,102907.19
2022-12-01T02:05:33.100Z,102927.88
2022-12-01T02:08:03.591Z,102895.00
2022-12-01T02:10:42.703Z,102912.97
2022-12-01T02:13:31.875Z,102891.78
2022-12-01T02:16:39.339Z,102914.78
2022-12-01T02:19:41.136Z,102912.97
2022-12-01T02:22:20.216Z,102918.75
2022-12-01T02:25:15.801Z,102918.53
2022-12-01T02:28:17.810Z,102920.16
2022-12-01T02:30:53.606Z,102881.16
2022-12-01T02:33:33.145Z,102904.66
2022-12-01T02:36:08.397Z,102902.53
2022-12-01T02:38:45.978Z,102893.16
2022-12-01T02:42:39.036Z,102896.59
2022-12-01T02:45:14.005Z,102885.78
2022-12-01T02:47:46.025Z,102906.78
2022-12-01T02:50:15.051Z,102910.00
2022-12-01T02:52:44.108Z,102908.22
2022-12-01T02:55:14.147Z,102933.34
2022-12-01T02:57:43.024Z,102895.44
2022-12-01T03:00:14.286Z,102904.66
2022-12-01T03:03:13.126Z,102936.16
2022-12-01T03:06:25.461Z,102943.31
2022-12-01T03:09:18.753Z,102917.28
2022-12-01T03:12:00.575Z,102940.28
2022-12-01T03:14:53.455Z,102902.91
2022-12-01T03:17:29.517Z,102923.75
2022-12-01T03:20:15.663Z,102836.41
2022-12-01T03:22:53.716Z,102948.97
2022-12-01T03:25:25.297Z,102918.78
2022-12-01T03:28:22.941Z,102935.31
2022-12-01T03:30:49.995Z,102937.47
2022-12-01T03:33:35.986Z,102932.06
2022-12-01T03:36:11.456Z,102858.75
2022-12-01T03:38:42.037Z,102947.22
2022-12-01T03:41:17.329Z,102935.00
2022-12-01T03:43:52.625Z,102958.75
2022-12-01T03:46:58.882Z,102959.69
2022-12-01T03:49:27.738Z,102927.88
2022-12-01T03:52:11.534Z,102935.63
2022-12-01T03:54:54.678Z,102966.06
2022-12-01T03:57:32.578Z,102935.88
2022-12-01T04:00:02.254Z,102924.72
2022-12-01T04:02:41.725Z,102929.81
2022-12-01T04:05:10.598Z,102931.06
2022-12-01T04:07:41.016Z,102933.59
2022-12-01T04:10:10.153Z,102960.38
2022-12-01T04:12:39.004Z,102967.22
2022-12-01T04:15:11.033Z,102928.22
2022-12-01T04:17:45.914Z,102973.19
2022-12-01T04:20:15.920Z,102965.09
2022-12-01T04:22:45.266Z,102935.63
2022-12-01T04:25:13.757Z,102941.75
2022-12-01T04:27:42.564Z,102955.25
2022-12-01T04:30:14.076Z,102970.84
2022-12-01T04:32:44.561Z,102974.63
2022-12-01T04:35:13.827Z,103000.72
2022-12-01T04:37:45.017Z,102950.38
2022-12-01T04:40:14.176Z,102882.13
2022-12-01T04:42:42.786Z,102992.41
2022-12-01T04:45:11.771Z,102986.28
2022-12-01T05:05:27.753Z,102979.94
2022-12-01T05:08:01.726Z,102962.09
2022-12-01T05:10:30.521Z,102990.28
2022-12-01T05:12:59.507Z,102952.28
2022-12-01T05:15:28.205Z,102957.50
2022-12-01T05:17:56.882Z,102960.16
2022-12-01T05:20:46.042Z,102954.47
2022-12-01T05:23:17.012Z,102987.09
2022-12-01T05:25:46.033Z,102976.63
2022-12-01T05:28:14.763Z,102868.91
2022-12-01T05:30:44.175Z,102888.03
2022-12-01T05:33:13.303Z,102979.09
2022-12-01T05:42:44.435Z,102933.00
2022-12-01T05:45:13.215Z,102970.22
2022-12-01T05:47:41.959Z,102950.00
2022-12-01T05:50:10.987Z,102945.81
2022-12-01T05:52:39.805Z,102909.63
2022-12-01T05:55:08.841Z,102968.00
2022-12-01T05:57:37.697Z,102928.47
2022-12-01T06:00:07.985Z,102940.75
2022-12-01T06:02:43.332Z,102958.91
2022-12-01T06:05:12.240Z,102964.78
2022-12-01T06:07:41.026Z,102912.91
2022-12-01T06:10:11.740Z,102941.66
2022-12-01T06:12:40.801Z,102931.91
2022-12-01T06:15:09.903Z,102930.16
2022-12-01T06:17:40.365Z,102952.06
2022-12-01T06:20:13.277Z,102945.69
2022-12-01T06:22:41.905Z,102943.63
2022-12-01T06:25:11.411Z,102954.31
2022-12-01T06:27:40.180Z,102895.47
2022-12-01T06:30:09.771Z,102933.59
2022-12-01T06:32:38.400Z,102950.16
2022-12-01T06:35:07.846Z,102930.81
2022-12-01T06:37:36.812Z,102938.44
2022-12-01T06:40:06.222Z,102956.97
2022-12-01T06:42:34.801Z,102933.69
2022-12-01T06:45:03.741Z,102918.59
2022-12-01T06:47:32.528Z,102947.13
2022-12-01T06:50:01.467Z,102926.22
2022-12-01T06:52:30.292Z,102924.00
2022-12-01T06:54:59.457Z,102913.84
2022-12-01T06:57:28.438Z,102864.75
2022-12-01T06:59:57.134Z,102905.22
2022-12-01T07:02:26.677Z,102951.50
2022-12-01T07:04:55.426Z,102877.75
2022-12-01T07:07:24.208Z,102924.75
2022-12-01T07:09:53.081Z,102955.06
2022-12-01T07:12:21.596Z,102934.31
2022-12-01T07:14:50.372Z,102917.13
2022-12-01T07:17:19.399Z,102936.34
2022-12-01T07:19:48.224Z,102922.91
2022-12-01T07:22:17.417Z,102960.97
2022-12-01T07:24:46.258Z,102915.44
2022-12-01T07:27:17.781Z,102903.31
2022-12-01T07:29:46.914Z,102927.97
2022-12-01T07:32:19.447Z,102934.50
2022-12-01T07:34:48.289Z,102914.63
2022-12-01T07:37:19.518Z,102941.78
2022-12-01T07:39:48.692Z,102903.31
2022-12-01T07:42:17.642Z,102922.84
2022-12-01T07:44:46.544Z,102929.06
2022-12-01T07:47:15.613Z,102932.78
2022-12-01T07:49:44.470Z,102877.94
2022-12-01T07:52:13.123Z,102926.84
2022-12-01T07:54:41.731Z,102932.22
2022-12-01T07:57:10.875Z,102958.13
2022-12-01T07:59:39.588Z,102941.09
2022-12-01T08:02:11.315Z,102883.22
2022-12-01T08:04:40.291Z,102945.28
2022-12-01T08:07:08.883Z,102935.09
2022-12-01T08:09:38.159Z,102948.53
2022-12-01T08:12:07.234Z,102872.72
2022-12-01T08:28:41.303Z,102924.31
2022-12-01T08:31:23.671Z,102946.50
2022-12-01T08:33:54.780Z,102951.13
2022-12-01T08:36:23.945Z,102955.19
2022-12-01T08:38:55.046Z,102922.25
2022-12-01T08:41:25.181Z,102951.59
2022-12-01T08:43:58.832Z,102939.09
2022-12-01T08:46:35.122Z,102953.09
2022-12-01T08:49:06.055Z,102950.72
2022-12-01T08:51:34.890Z,102922.66
2022-12-01T08:54:03.348Z,102976.00
2022-12-01T08:56:36.309Z,102948.19
2022-12-01T08:59:05.737Z,102938.13
2022-12-01T09:01:34.386Z,102936.38
2022-12-01T09:04:06.859Z,102925.09
2022-12-01T09:06:45.056Z,102919.25
2022-12-01T09:09:23.274Z,102941.25
2022-12-01T09:11:55.449Z,102937.78
2022-12-01T09:14:24.670Z,102929.75
2022-12-01T09:16:53.515Z,102912.16
2022-12-01T09:19:25.007Z,102890.97
2022-12-01T09:21:54.521Z,102902.56
2022-12-01T09:24:23.284Z,102890.97
2022-12-01T09:26:55.337Z,102925.50
2022-12-01T09:29:24.104Z,102843.41
2022-12-01T09:31:55.739Z,102946.84
2022-12-01T09:34:24.961Z,102914.28
2022-12-01T09:36:58.678Z,102926.03
2022-12-01T09:39:27.348Z,102945.13
2022-12-01T09:52:50.317Z,102947.41
2022-12-01T09:55:22.295Z,102929.03
2022-12-01T09:57:53.813Z,102927.09
2022-12-01T10:00:24.191Z,102942.59
2022-12-01T10:03:17.536Z,102947.59
2022-12-01T10:06:25.880Z,102895.72
2022-12-01T10:08:54.120Z,102871.72
2022-12-01T10:11:37.138Z,102950.00
2022-12-01T10:14:12.094Z,102944.97
2022-12-01T10:16:56.772Z,102914.72
2022-12-01T10:19:37.372Z,102948.56
2022-12-01T10:22:19.559Z,102935.50
2022-12-01T10:25:18.831Z,102927.78
2022-12-01T10:28:22.185Z,102912.56
2022-12-01T10:30:53.601Z,102954.13
2022-12-01T10:58:56.082Z,102932.47
2022-12-01T11:01:32.608Z,102938.16
2022-12-01T11:04:35.618Z,102935.03
2022-12-01T11:07:05.855Z,102835.16
2022-12-01T11:09:34.995Z,102922.41
2022-12-01T15:23:27.861Z,102909.97
2022-12-01T15:25:57.648Z,102887.97
2022-12-01T15:28:35.088Z,102891.84
2022-12-01T15:31:12.309Z,102911.72
2022-12-01T15:33:51.616Z,102868.88
2022-12-01T15:36:20.653Z,102907.50
2022-12-01T15:38:50.586Z,102879.16
2022-12-01T15:41:31.505Z,102884.94
2022-12-01T15:44:06.234Z,102871.00
2022-12-01T15:46:35.667Z,102854.50
2022-12-01T15:49:30.348Z,102878.66
2022-12-01T15:52:12.674Z,102912.06
2022-12-01T15:54:42.224Z,102865.19
2022-12-01T15:57:21.150Z,102906.34
2022-12-01T15:59:56.759Z,102909.63
2022-12-01T16:02:33.855Z,102909.44
2022-12-01T16:05:19.307Z,102877.06
2022-12-01T16:08:12.603Z,102897.91
2022-12-01T16:10:38.455Z,102884.81
2022-12-01T16:13:36.161Z,102917.84
2022-12-01T16:16:37.605Z,102912.50
2022-12-01T16:19:11.364Z,102914.00
2022-12-01T16:21:52.517Z,102876.38
2022-12-01T16:24:32.384Z,102874.56
2022-12-01T16:27:17.692Z,102877.91
2022-12-01T16:29:53.741Z,102878.97
2022-12-01T16:32:39.641Z,102860.63
2022-12-01T16:35:25.257Z,102869.53
2022-12-01T16:37:55.316Z,102889.34
2022-12-01T16:40:24.873Z,102886.19
2022-12-01T16:42:59.320Z,102911.44
2022-12-01T16:45:31.807Z,102922.97
2022-12-01T16:48:07.807Z,102852.22
2022-12-01T16:50:42.152Z,102895.75
2022-12-01T16:53:14.883Z,102895.00
2022-12-01T16:56:03.006Z,102898.41
2022-12-01T16:58:33.882Z,102912.25
2022-12-01T17:01:02.625Z,102886.44
2022-12-01T17:03:31.559Z,102909.44
2022-12-01T17:06:03.275Z,102898.34
2022-12-01T17:08:32.412Z,102902.00
2022-12-01T17:11:01.432Z,102884.09
2022-12-01T17:13:30.586Z,102938.00
2022-12-01T17:15:59.762Z,102900.31
2022-12-01T17:18:28.551Z,102923.31
2022-12-01T17:21:02.394Z,102904.66
2022-12-01T17:23:33.553Z,102920.78
2022-12-01T17:26:02.521Z,102909.06
2022-12-01T17:28:31.474Z,102936.69
2022-12-01T17:31:03.825Z,102919.16
2022-12-01T17:33:33.073Z,102918.50
2022-12-01T17:36:05.016Z,102844.69
2022-12-01T17:38:38.572Z,102951.63
2022-12-01T17:41:11.661Z,102950.28
2022-12-01T17:43:41.308Z,102946.16
2022-12-01T17:46:12.786Z,102910.53
2022-12-01T17:48:45.467Z,102905.16
2022-12-01T17:51:16.174Z,102926.78
2022-12-01T17:53:45.102Z,102899.69
2022-12-01T17:56:16.022Z,102935.97
2022-12-01T17:58:45.285Z,102950.38
2022-12-01T18:01:21.359Z,102901.38
2022-12-01T18:03:52.415Z,102895.31
2022-12-01T18:06:22.429Z,102930.56
2022-12-01T18:08:51.489Z,102945.00
2022-12-01T18:11:21.583Z,102910.91
2022-12-01T18:13:52.273Z,102956.84
2022-12-01T18:16:24.515Z,102963.69
2022-12-01T18:18:54.433Z,102679.16
2022-12-01T18:21:24.795Z,102925.75
2022-12-01T18:24:01.451Z,102944.50
2022-12-01T18:26:33.415Z,102925.31
2022-12-01T18:29:04.416Z,102946.00
2022-12-01T18:31:34.717Z,102969.72
2022-12-01T18:34:05.272Z,102981.97
2022-12-01T18:36:38.005Z,102979.84
2022-12-01T18:39:09.845Z,102964.56
2022-12-01T18:41:39.396Z,102943.56
2022-12-01T18:44:08.644Z,102965.94
2022-12-01T18:46:37.501Z,102904.06
2022-12-01T18:49:09.720Z,102978.53
2022-12-01T18:51:40.501Z,102956.13
2022-12-01T18:54:13.102Z,102965.91
2022-12-01T18:56:42.351Z,102931.81
2022-12-01T18:59:13.683Z,102958.53
2022-12-01T19:01:44.033Z,102983.75
2022-12-01T19:04:14.679Z,102881.03
2022-12-01T19:06:44.999Z,102964.03
2022-12-01T19:09:16.560Z,102997.81
2022-12-01T19:11:45.480Z,102977.72
2022-12-01T19:14:18.419Z,102943.56
2022-12-01T19:16:48.471Z,103001.13
2022-12-01T19:19:17.163Z,102960.88
2022-12-01T19:21:46.481Z,102969.50
2022-12-01T19:24:15.342Z,103013.75
2022-12-01T19:26:43.908Z,102970.97
2022-12-01T19:29:13.470Z,102948.72
2022-12-01T19:31:42.538Z,103006.25
2022-12-01T19:34:11.279Z,103015.94
2022-12-01T19:36:39.768Z,102986.31
2022-12-01T19:39:08.540Z,103005.94
2022-12-01T19:41:39.320Z,103027.88
2022-12-01T19:44:08.061Z,102990.69
2022-12-01T19:46:37.219Z,103019.09
2022-12-01T19:49:07.799Z,102972.53
2022-12-01T19:51:40.079Z,103017.63
2022-12-01T19:54:15.520Z,103015.47
2022-12-01T19:56:44.798Z,102987.44
2022-12-01T19:59:15.320Z,102981.91
2022-12-01T20:01:44.541Z,102990.41
2022-12-01T20:04:13.819Z,102995.22
2022-12-01T20:06:43.079Z,102997.00
2022-12-01T20:09:11.940Z,103018.25
2022-12-01T20:11:40.860Z,102898.78
2022-12-01T20:14:11.495Z,102979.97
2022-12-01T20:16:40.807Z,103015.72
2022-12-01T20:19:09.340Z,102993.28
2022-12-01T20:21:46.119Z,102978.91
2022-12-01T20:24:19.081Z,102983.41
2022-12-01T20:26:51.579Z,103048.28
2022-12-01T20:29:23.129Z,103044.72
2022-12-01T20:31:52.869Z,103030.16
2022-12-01T20:34:26.222Z,103028.56
2022-12-01T20:36:55.763Z,103003.59
2022-12-01T20:39:25.362Z,103013.81
2022-12-01T20:41:55.061Z,102993.16
2022-12-01T20:44:23.691Z,103022.47
2022-12-01T20:46:53.221Z,102971.94
2022-12-01T20:49:21.905Z,103017.97
2022-12-01T20:51:50.679Z,103041.53
2022-12-01T20:54:29.125Z,103010.41
2022-12-01T20:57:00.239Z,103003.41
2022-12-01T20:59:29.962Z,103057.53
2022-12-01T21:01:58.657Z,102933.50
2022-12-01T21:04:27.504Z,102934.94
2022-12-01T21:06:58.363Z,103054.66
2022-12-01T21:09:27.720Z,102947.16
2022-12-01T21:12:17.966Z,103010.94
2022-12-01T21:15:01.624Z,103053.75
2022-12-01T21:17:33.507Z,103091.34
2022-12-01T21:20:18.722Z,102977.53
2022-12-01T21:22:47.521Z,103059.34
2022-12-01T21:25:20.341Z,103057.16
2022-12-01T21:27:49.546Z,103099.44
2022-12-01T21:30:21.660Z,103089.53
2022-12-01T21:32:50.860Z,103053.56
2022-12-01T21:35:26.721Z,103077.28
2022-12-01T21:38:02.943Z,103077.63
2022-12-01T21:40:31.781Z,103074.41
2022-12-01T21:43:13.209Z,103061.28
2022-12-01T21:45:41.827Z,103051.03
2022-12-01T21:48:25.354Z,103092.38
2022-12-01T21:51:13.662Z,103065.78
2022-12-01T21:53:42.501Z,102996.66
2022-12-01T21:56:25.841Z,102963.56
2022-12-01T21:58:58.289Z,103087.69
2022-12-01T22:01:29.972Z,103062.47
2022-12-01T22:04:06.503Z,103061.38
2022-12-01T22:06:44.447Z,103063.53
2022-12-01T22:09:21.205Z,103107.44
2022-12-01T22:11:57.441Z,103069.66
2022-12-01T22:14:33.509Z,103106.91
2022-12-01T22:17:08.266Z,103104.19
2022-12-01T22:19:40.207Z,103100.59
2022-12-01T22:22:12.160Z,103105.28
2022-12-01T22:24:47.218Z,103088.66
2022-12-01T22:27:21.849Z,103105.59
2022-12-01T22:29:53.382Z,103032.50
2022-12-01T22:32:22.573Z,103105.22
2022-12-01T22:34:54.899Z,103106.59
2022-12-01T22:37:37.357Z,103080.88
2022-12-01T22:40:32.085Z,103111.50
2022-12-01T22:43:19.192Z,103113.81
2022-12-01T22:46:12.349Z,103112.03
2022-12-01T22:48:47.739Z,103081.03
2022-12-01T22:51:52.395Z,102984.25
2022-12-01T22:54:27.288Z,103060.69
2022-12-01T22:57:05.242Z,103120.44
2022-12-01T22:59:36.955Z,103084.25
2022-12-01T23:02:22.181Z,103106.94
2022-12-01T23:04:57.425Z,103065.72
2022-12-01T23:07:36.280Z,103110.91
2022-12-01T23:10:12.347Z,103056.53
2022-12-01T23:12:41.681Z,103052.78
2022-12-01T23:15:34.896Z,103090.19
2022-12-01T23:18:21.735Z,103105.88
2022-12-01T23:20:54.022Z,103068.25
2022-12-01T23:23:28.272Z,103109.09
2022-12-01T23:25:57.844Z,103100.84
2022-12-01T23:28:26.930Z,103058.19
2022-12-01T23:30:59.892Z,103053.31
2022-12-01T23:33:33.441Z,103103.75
2022-12-01T23:36:14.574Z,103096.16
2022-12-01T23:38:46.289Z,103072.38
2022-12-01T23:41:38.142Z,103104.78
2022-12-01T23:44:24.815Z,103114.16
2022-12-01T23:46:57.040Z,103084.13
2022-12-01T23:49:30.782Z,103130.16
2022-12-01T23:52:02.955Z,103095.44
2022-12-01T23:54:35.513Z,103085.19
2022-12-01T23:57:12.840Z,103114.19
2022-12-01T23:59:41.508Z,103121.75
